Time;durP1;ratioP1;P1;durP2;ratioP2;P2;SDS_P1;SDS_P2;PMS_P1;PMS_P2;Temp;Humidity;BMP_temperature;BMP_pressure;BME280_temperature;BME280_humidity;BME280_pressure;Samples;Min_cycle;Max_cycle;Signal;HPM_P1;HPM_P2
2022/04/04 00:00:21;;;;;;;8.35;3.50;;;3.10;99.90;;;;;;5087761;28;20079;-67
2022/04/04 00:02:47;;;;;;;6.75;3.38;;;3.10;99.90;;;;;;5076466;28;20432;-66
2022/04/04 00:05:13;;;;;;;7.72;3.42;;;3.00;99.90;;;;;;5082519;28;20044;-66
2022/04/04 00:07:39;;;;;;;7.43;3.47;;;3.10;99.90;;;;;;5080868;28;20089;-66
2022/04/04 00:10:05;;;;;;;7.75;3.22;;;3.10;99.90;;;;;;5083519;28;20048;-67
2022/04/04 00:12:31;;;;;;;7.78;3.70;;;3.10;99.90;;;;;;5091349;28;20040;-66
2022/04/04 00:14:58;;;;;;;7.95;3.40;;;3.10;99.90;;;;;;5092324;28;20624;-68
2022/04/04 00:17:23;;;;;;;7.18;3.55;;;3.10;99.90;;;;;;5072899;28;20037;-67
2022/04/04 00:19:49;;;;;;;5.25;3.28;;;3.10;99.90;;;;;;5081144;28;20039;-68
2022/04/04 00:22:15;;;;;;;10.27;3.45;;;3.10;99.90;;;;;;5077271;28;20394;-67
2022/04/04 00:24:41;;;;;;;6.30;3.53;;;3.10;99.90;;;;;;5084786;28;20553;-67
2022/04/04 00:27:06;;;;;;;6.55;3.10;;;3.10;99.90;;;;;;5083857;28;20044;-67
2022/04/04 00:29:32;;;;;;;7.97;3.75;;;3.10;99.90;;;;;;5074396;28;20047;-68
2022/04/04 00:31:58;;;;;;;8.23;3.25;;;3.10;99.90;;;;;;5087981;28;20055;-67
2022/04/04 00:34:23;;;;;;;6.45;3.45;;;3.20;99.90;;;;;;5086390;28;20521;-67
2022/04/04 00:36:52;;;;;;;6.68;3.40;;;3.10;99.90;;;;;;5086736;28;20036;-67
2022/04/04 00:39:19;;;;;;;7.90;3.50;;;3.20;99.90;;;;;;5076762;28;20040;-67
2022/04/04 00:41:48;;;;;;;7.72;3.35;;;3.20;99.90;;;;;;5080351;28;20554;-67
2022/04/04 00:44:14;;;;;;;5.60;3.17;;;3.10;99.90;;;;;;5087926;28;20394;-68
2022/04/04 00:46:41;;;;;;;6.97;3.90;;;3.20;99.90;;;;;;5073896;28;20044;-66
2022/04/04 00:49:08;;;;;;;12.43;4.00;;;3.10;99.90;;;;;;5073159;28;20557;-66
2022/04/04 00:51:35;;;;;;;8.35;3.70;;;3.10;99.90;;;;;;5089931;28;20059;-67
2022/04/04 00:54:02;;;;;;;9.10;3.58;;;3.20;99.90;;;;;;5077804;28;20446;-66
2022/04/04 00:56:28;;;;;;;8.93;3.63;;;3.10;99.90;;;;;;5084284;28;20393;-66
2022/04/04 00:58:54;;;;;;;7.15;3.95;;;3.20;99.90;;;;;;5079812;28;20036;-67
2022/04/04 01:01:23;;;;;;;10.73;3.88;;;3.20;99.90;;;;;;5081608;28;20482;-67
2022/04/04 01:03:48;;;;;;;6.80;3.55;;;3.10;99.90;;;;;;5072216;28;20056;-68
2022/04/04 01:06:14;;;;;;;8.05;4.05;;;3.30;99.90;;;;;;5077479;28;20378;-69
2022/04/04 01:08:40;;;;;;;10.32;4.00;;;3.20;99.90;;;;;;5079490;28;20076;-67
2022/04/04 01:11:06;;;;;;;8.60;4.68;;;3.20;99.90;;;;;;5076562;28;20500;-68
2022/04/04 01:13:32;;;;;;;17.90;4.70;;;3.20;99.90;;;;;;5075593;28;20036;-66
2022/04/04 01:15:57;;;;;;;10.02;4.80;;;3.20;99.90;;;;;;5074015;28;20117;-67
2022/04/04 01:18:23;;;;;;;7.97;4.38;;;3.30;99.90;;;;;;5061309;28;20513;-68
2022/04/04 01:20:50;;;;;;;7.68;4.80;;;3.30;99.90;;;;;;5074496;28;20048;-66
2022/04/04 01:23:23;;;;;;;12.88;4.85;;;3.30;99.90;;;;;;5082423;28;20498;-68
2022/04/04 01:25:48;;;;;;;9.77;4.72;;;3.30;99.90;;;;;;5074106;28;20047;-67
2022/04/04 01:28:14;;;;;;;11.20;5.00;;;3.40;99.90;;;;;;5083497;28;20067;-67
2022/04/04 01:30:40;;;;;;;11.23;5.50;;;3.40;99.90;;;;;;5073402;28;20047;-66
2022/04/04 01:33:06;;;;;;;9.88;5.50;;;3.40;99.90;;;;;;5084246;28;20041;-67
2022/04/04 01:35:32;;;;;;;10.00;6.35;;;3.40;99.90;;;;;;5069719;28;20151;-66
2022/04/04 01:38:02;;;;;;;9.73;5.90;;;3.50;99.90;;;;;;5083532;28;20539;-67
2022/04/04 01:40:27;;;;;;;15.10;5.97;;;3.50;99.90;;;;;;5074232;28;20048;-67
2022/04/04 01:42:55;;;;;;;13.80;6.70;;;3.50;99.90;;;;;;5074591;28;20437;-67
2022/04/04 01:46:23;;;;;;;14.38;6.97;;;3.60;99.90;;;;;;5072396;28;22507;-67
2022/04/04 01:48:08;;;;;;;12.60;7.38;;;3.60;99.90;;;;;;5084782;28;20487;-67
2022/04/04 01:50:34;;;;;;;15.25;8.50;;;3.60;99.90;;;;;;5076226;28;20036;-67
2022/04/04 01:55:44;;;;;;;17.77;8.63;;;3.90;99.90;;;;;;5084888;28;20492;-67
2022/04/04 01:58:09;;;;;;;20.50;10.13;;;3.70;99.90;;;;;;5075189;28;20047;-68
2022/04/04 02:00:35;;;;;;;15.02;9.13;;;3.70;99.90;;;;;;5078706;28;20040;-67
2022/04/04 02:03:00;;;;;;;14.23;9.00;;;3.70;99.90;;;;;;5069392;28;20423;-67
2022/04/04 02:05:26;;;;;;;15.25;9.23;;;3.80;99.90;;;;;;5072659;28;20052;-68
2022/04/04 02:07:52;;;;;;;16.60;9.57;;;3.80;99.90;;;;;;5079719;28;20048;-67
2022/04/04 02:10:17;;;;;;;15.02;9.80;;;3.80;99.90;;;;;;5074064;28;20127;-66
2022/04/04 02:12:43;;;;;;;17.10;10.30;;;3.80;99.90;;;;;;5079026;28;20185;-67
2022/04/04 02:15:09;;;;;;;15.98;10.82;;;3.90;99.90;;;;;;5079475;28;20078;-68
2022/04/04 02:17:34;;;;;;;16.38;10.63;;;3.80;99.90;;;;;;5083000;28;20033;-66
2022/04/04 02:20:00;;;;;;;17.35;10.35;;;3.90;99.90;;;;;;5081837;28;20040;-68
2022/04/04 02:22:25;;;;;;;18.50;10.35;;;4.10;99.90;;;;;;5086633;28;20036;-69
2022/04/04 02:24:51;;;;;;;21.23;10.73;;;3.90;99.90;;;;;;5074764;28;20046;-68
2022/04/04 02:27:18;;;;;;;20.02;11.18;;;3.90;99.90;;;;;;5074854;28;20083;-67
2022/04/04 02:29:44;;;;;;;17.45;10.65;;;4.10;99.90;;;;;;5076098;28;20084;-68
2022/04/04 02:32:09;;;;;;;17.73;11.05;;;3.80;99.90;;;;;;5080741;28;20792;-67
2022/04/04 02:34:35;;;;;;;16.77;11.20;;;3.90;99.90;;;;;;5073569;28;21569;-66
2022/04/04 02:37:01;;;;;;;19.85;11.30;;;3.90;99.90;;;;;;5075865;28;20402;-67
2022/04/04 02:39:26;;;;;;;17.88;10.32;;;3.90;99.90;;;;;;5085364;28;20086;-66
2022/04/04 02:41:52;;;;;;;19.88;11.75;;;3.90;99.90;;;;;;5086144;28;20135;-66
2022/04/04 02:44:18;;;;;;;19.08;11.38;;;4.50;99.90;;;;;;5080049;28;20093;-67
2022/04/04 02:46:43;;;;;;;17.27;10.95;;;3.90;99.90;;;;;;5082795;28;20036;-67
2022/04/04 02:49:09;;;;;;;20.30;11.88;;;3.90;99.90;;;;;;5074573;28;20043;-66
2022/04/04 02:51:35;;;;;;;17.42;11.70;;;4.00;99.90;;;;;;5073268;28;20044;-67
2022/04/04 02:54:00;;;;;;;18.40;11.32;;;4.00;99.90;;;;;;5079020;28;20040;-68
2022/04/04 02:56:29;;;;;;;18.00;12.18;;;4.00;99.90;;;;;;5086753;28;20084;-67
2022/04/04 02:58:56;;;;;;;21.27;12.10;;;4.00;99.90;;;;;;5090009;28;20032;-67
2022/04/04 03:01:22;;;;;;;20.05;13.20;;;4.00;99.90;;;;;;5080780;28;20116;-67
2022/04/04 03:03:48;;;;;;;20.58;12.15;;;4.00;99.90;;;;;;5083874;28;20055;-67
2022/04/04 03:06:15;;;;;;;17.90;11.77;;;4.00;99.90;;;;;;5077220;28;20342;-67
2022/04/04 03:08:41;;;;;;;16.67;11.70;;;4.10;99.90;;;;;;5075043;28;20045;-68
2022/04/04 03:11:07;;;;;;;21.55;11.07;;;4.10;99.90;;;;;;5081747;28;20098;-66
2022/04/04 03:13:32;;;;;;;16.50;11.70;;;4.10;99.90;;;;;;5087895;28;20040;-66
2022/04/04 03:15:58;;;;;;;20.80;11.68;;;4.10;99.90;;;;;;5080174;28;20044;-66
2022/04/04 03:18:25;;;;;;;22.20;11.65;;;4.10;99.90;;;;;;5073291;28;20132;-68
2022/04/04 03:20:52;;;;;;;21.83;12.93;;;4.20;99.90;;;;;;5079697;28;20101;-67
2022/04/04 03:23:18;;;;;;;20.42;12.10;;;4.20;99.90;;;;;;5073129;28;20044;-67
2022/04/04 03:25:43;;;;;;;19.65;11.82;;;4.20;99.90;;;;;;5080363;28;20423;-67
2022/04/04 03:28:09;;;;;;;17.92;11.65;;;4.20;99.90;;;;;;5076231;28;20496;-67
2022/04/04 03:30:35;;;;;;;21.48;13.23;;;4.40;99.90;;;;;;5080449;28;20497;-68
2022/04/04 03:33:01;;;;;;;17.75;11.57;;;4.30;99.90;;;;;;5088153;28;20040;-67
2022/04/04 03:35:29;;;;;;;19.42;11.60;;;4.30;99.90;;;;;;5083010;28;20331;-67
2022/04/04 03:37:58;;;;;;;17.27;11.73;;;4.30;99.90;;;;;;5074302;28;20408;-66
2022/04/04 03:40:24;;;;;;;26.38;13.25;;;4.30;99.90;;;;;;5081530;28;20753;-67
2022/04/04 03:42:53;;;;;;;20.20;12.32;;;4.40;99.90;;;;;;5084605;28;20067;-67
2022/04/04 03:45:19;;;;;;;;;;;4.40;99.90;;;;;;5076344;28;20036;-66
2022/04/04 03:47:46;;;;;;;25.08;13.55;;;4.40;99.90;;;;;;5073484;28;19920;-66
2022/04/04 03:50:13;;;;;;;19.50;12.38;;;4.40;99.90;;;;;;5078576;28;20036;-68
2022/04/04 03:52:42;;;;;;;24.65;13.90;;;4.40;99.90;;;;;;5088367;28;20141;-67
2022/04/04 03:55:11;;;;;;;24.02;13.52;;;4.40;99.90;;;;;;5081435;28;20097;-67
2022/04/04 03:57:38;;;;;;;21.30;13.60;;;4.50;99.90;;;;;;5073088;28;20106;-67
2022/04/04 04:00:05;;;;;;;26.23;14.55;;;4.50;99.90;;;;;;5079631;28;20041;-67
2022/04/04 04:02:32;;;;;;;26.25;14.23;;;4.50;99.90;;;;;;5085717;28;20406;-67
2022/04/04 04:04:58;;;;;;;29.70;14.60;;;4.50;99.90;;;;;;5084950;28;20066;-67
2022/04/04 04:07:25;;;;;;;38.15;16.02;;;4.50;99.90;;;;;;5078810;28;20041;-67
2022/04/04 04:09:53;;;;;;;23.35;14.30;;;4.60;99.90;;;;;;5082186;28;20059;-67
2022/04/04 04:12:23;;;;;;;26.95;16.10;;;4.40;99.90;;;;;;5085988;28;20111;-68
2022/04/04 04:14:51;;;;;;;28.23;15.95;;;4.40;99.90;;;;;;5084096;28;20037;-67
2022/04/04 04:17:18;;;;;;;24.88;14.73;;;4.40;99.90;;;;;;5075783;28;20048;-68
2022/04/04 04:22:30;;;;;;;27.83;17.13;;;4.40;99.90;;;;;;5074811;28;20049;-67
2022/04/04 04:24:56;;;;;;;28.17;15.45;;;4.40;99.90;;;;;;5076080;28;20048;-66
2022/04/04 04:27:22;;;;;;;29.45;15.80;;;4.40;99.90;;;;;;5076325;28;20036;-68
2022/04/04 04:29:47;;;;;;;26.50;15.85;;;4.50;99.90;;;;;;5088420;28;20046;-68
2022/04/04 04:32:13;;;;;;;31.80;16.60;;;4.60;99.90;;;;;;5074882;28;20041;-67
2022/04/04 04:34:39;;;;;;;30.38;17.85;;;4.50;99.90;;;;;;5082213;28;20563;-67
2022/04/04 04:37:05;;;;;;;36.15;17.75;;;4.60;99.90;;;;;;5078329;28;20126;-68
2022/04/04 04:39:32;;;;;;;30.10;17.98;;;4.60;99.90;;;;;;5072167;28;20437;-68
2022/04/04 04:41:57;;;;;;;34.85;18.30;;;4.60;99.90;;;;;;5072122;28;20510;-68
2022/04/04 04:44:23;;;;;;;33.38;17.98;;;4.50;99.90;;;;;;5078724;28;20044;-68
2022/04/04 04:46:49;;;;;;;31.27;16.30;;;4.50;99.90;;;;;;5085879;28;20140;-67
2022/04/04 04:49:16;;;;;;;31.45;18.05;;;4.60;99.90;;;;;;5085935;28;20115;-68
2022/04/04 04:51:42;;;;;;;27.17;16.52;;;4.60;99.90;;;;;;5076891;28;20078;-67
2022/04/04 04:54:08;;;;;;;29.38;15.88;;;4.60;99.90;;;;;;5077110;28;20446;-69
2022/04/04 04:56:35;;;;;;;30.67;17.73;;;6.00;99.90;;;;;;5081473;28;20040;-68
2022/04/04 04:59:02;;;;;;;31.08;17.83;;;4.60;99.90;;;;;;5081757;28;20550;-69
2022/04/04 05:01:28;;;;;;;29.85;16.50;;;4.60;99.90;;;;;;5082432;28;20043;-71
2022/04/04 05:03:53;;;;;;;25.85;15.90;;;4.60;99.90;;;;;;5077725;28;20045;-69
2022/04/04 05:06:19;;;;;;;27.50;16.67;;;4.70;99.90;;;;;;5072268;28;20036;-69
2022/04/04 05:08:45;;;;;;;31.08;17.05;;;4.70;99.90;;;;;;5083765;28;20558;-68
2022/04/04 05:11:11;;;;;;;27.77;17.17;;;4.70;99.90;;;;;;5077644;28;20081;-69
2022/04/04 05:13:36;;;;;;;30.67;18.60;;;4.70;99.90;;;;;;5079757;28;20032;-68
2022/04/04 05:16:09;;;;;;;34.05;16.83;;;5.00;99.90;;;;;;5083537;28;20040;-68
2022/04/04 05:18:36;;;;;;;31.38;17.45;;;4.60;99.90;;;;;;5088824;28;20405;-70
2022/04/04 05:21:03;;;;;;;30.88;17.52;;;4.60;99.90;;;;;;5085182;28;20040;-68
2022/04/04 05:23:29;;;;;;;31.35;18.75;;;4.70;99.90;;;;;;5081941;28;20418;-69
2022/04/04 05:25:57;;;;;;;34.10;17.67;;;4.80;99.90;;;;;;5075179;28;20047;-70
2022/04/04 05:28:23;;;;;;;;;;;4.70;99.90;;;;;;5088134;28;20043;-70
2022/04/04 05:30:48;;;;;;;26.27;14.98;;;5.90;99.90;;;;;;5062957;28;19928;-70
2022/04/04 05:33:14;;;;;;;29.17;14.25;;;4.60;99.90;;;;;;5078880;28;20040;-70
2022/04/04 05:35:40;;;;;;;23.58;13.20;;;4.70;99.90;;;;;;5053204;28;20166;-72
2022/04/04 05:38:08;;;;;;;28.90;12.95;;;5.60;99.90;;;;;;5076096;28;20402;-70
2022/04/04 05:40:34;;;;;;;;;;;4.70;99.90;;;;;;5080215;28;20154;-69
2022/04/04 05:43:00;;;;;;;18.50;11.73;;;4.70;99.90;;;;;;5082297;28;20347;-71
2022/04/04 05:45:26;;;;;;;18.52;11.02;;;4.70;99.90;;;;;;5081429;28;20362;-69
2022/04/04 05:47:52;;;;;;;22.75;11.77;;;4.70;99.90;;;;;;5072913;28;20658;-69
2022/04/04 05:50:21;;;;;;;21.15;11.65;;;4.70;99.90;;;;;;5080828;28;20502;-69
2022/04/04 05:52:46;;;;;;;17.17;9.73;;;4.70;99.90;;;;;;5079662;28;20096;-72
2022/04/04 05:55:13;;;;;;;19.20;10.82;;;4.70;99.90;;;;;;5080585;28;20032;-71
2022/04/04 05:57:39;;;;;;;16.65;9.50;;;4.70;99.90;;;;;;5077825;28;20047;-71
2022/04/04 06:00:11;;;;;;;20.63;10.70;;;4.70;99.90;;;;;;5088253;28;20070;-71
2022/04/04 06:02:37;;;;;;;19.65;11.82;;;4.70;99.90;;;;;;5084697;28;20040;-70
2022/04/04 06:05:09;;;;;;;16.60;8.75;;;4.70;99.90;;;;;;5077999;28;20055;-71
2022/04/04 06:07:36;;;;;;;18.35;8.43;;;4.60;99.90;;;;;;5084020;28;20040;-70
2022/04/04 06:10:04;;;;;;;13.32;6.15;;;4.60;99.90;;;;;;5084050;28;20079;-69
2022/04/04 06:12:30;;;;;;;15.60;6.88;;;4.60;99.90;;;;;;5086453;28;20040;-68
2022/04/04 06:14:56;;;;;;;11.18;6.18;;;4.50;99.90;;;;;;5093147;28;20549;-69
2022/04/04 06:17:22;;;;;;;10.77;5.75;;;4.50;99.90;;;;;;5083693;28;20115;-69
2022/04/04 06:19:47;;;;;;;13.25;5.10;;;4.50;99.90;;;;;;5076503;28;20462;-70
2022/04/04 06:22:13;;;;;;;9.80;4.82;;;4.40;99.90;;;;;;5081581;28;20048;-70
2022/04/04 06:24:39;;;;;;;11.52;4.30;;;4.40;99.90;;;;;;5087146;28;20040;-69
2022/04/04 06:27:07;;;;;;;12.52;4.28;;;4.60;99.90;;;;;;5092067;28;20059;-69
2022/04/04 06:29:33;;;;;;;11.55;5.80;;;4.40;99.90;;;;;;5091683;28;20056;-72
2022/04/04 06:32:01;;;;;;;12.55;4.50;;;4.40;99.90;;;;;;5084428;28;20043;-71
2022/04/04 06:34:27;;;;;;;9.85;5.78;;;4.40;99.90;;;;;;5087647;28;20123;-69
2022/04/04 06:36:53;;;;;;;8.90;5.10;;;4.40;99.90;;;;;;5092833;28;20131;-71
2022/04/04 06:39:19;;;;;;;15.75;6.10;;;4.30;99.90;;;;;;5087037;28;20036;-71
2022/04/04 06:41:45;;;;;;;12.52;5.53;;;4.40;99.90;;;;;;5086367;28;20048;-70
2022/04/04 06:44:12;;;;;;;13.48;5.90;;;4.30;99.90;;;;;;5090861;28;20486;-71
2022/04/04 06:46:38;;;;;;;9.13;4.72;;;4.40;99.90;;;;;;5093455;28;20043;-71
2022/04/04 06:49:07;;;;;;;12.43;5.28;;;4.40;99.90;;;;;;5075774;28;20051;-71
2022/04/04 06:51:34;;;;;;;8.13;4.65;;;4.40;99.90;;;;;;5094855;28;20115;-72
2022/04/04 06:54:03;;;;;;;8.73;5.07;;;4.40;99.90;;;;;;5076148;28;20035;-71
2022/04/04 06:56:29;;;;;;;9.82;5.25;;;4.40;99.90;;;;;;5090684;28;20124;-71
2022/04/04 06:58:55;;;;;;;13.90;5.10;;;4.40;99.90;;;;;;5092911;28;20044;-70
2022/04/04 07:01:20;;;;;;;13.48;5.90;;;4.40;99.90;;;;;;5096853;28;20036;-70
2022/04/04 07:03:46;;;;;;;8.05;4.70;;;4.40;99.90;;;;;;5092934;28;20499;-71
2022/04/04 07:06:12;;;;;;;11.63;5.55;;;4.50;99.90;;;;;;5093094;28;20489;-69
2022/04/04 07:08:38;;;;;;;13.02;5.32;;;4.50;99.90;;;;;;5041610;28;20268;-71
2022/04/04 07:11:04;;;;;;;10.45;5.97;;;4.50;99.90;;;;;;5093394;28;20063;-71
2022/04/04 07:13:33;;;;;;;11.57;6.32;;;4.50;99.90;;;;;;5093909;28;20389;-70
2022/04/04 07:15:59;;;;;;;14.55;7.15;;;4.50;99.90;;;;;;5084659;28;20044;-70
2022/04/04 07:18:25;;;;;;;12.13;6.65;;;4.50;99.90;;;;;;5087159;28;20062;-70
2022/04/04 07:20:50;;;;;;;16.25;7.95;;;4.60;99.90;;;;;;5089709;28;20043;-70
2022/04/04 07:23:16;;;;;;;11.35;7.25;;;4.60;99.90;;;;;;5090224;28;20044;-70
2022/04/04 07:25:42;;;;;;;15.73;8.70;;;4.60;99.90;;;;;;5077061;28;20135;-70
2022/04/04 07:28:08;;;;;;;18.60;8.50;;;4.70;99.90;;;;;;5074967;28;20059;-69
2022/04/04 07:30:34;;;;;;;17.80;8.65;;;4.70;99.90;;;;;;5088277;28;20045;-70
2022/04/04 07:33:01;;;;;;;13.95;7.90;;;4.80;99.90;;;;;;5095582;28;20040;-71
2022/04/04 07:35:27;;;;;;;17.58;9.50;;;4.80;99.90;;;;;;5077863;28;20062;-70
2022/04/04 07:37:53;;;;;;;17.27;8.85;;;4.90;99.90;;;;;;5089224;28;20138;-70
2022/04/04 07:40:20;;;;;;;18.42;10.43;;;4.90;99.90;;;;;;5088587;28;20102;-72
2022/04/04 07:42:46;;;;;;;15.40;9.85;;;4.90;99.90;;;;;;5080676;28;20127;-70
2022/04/04 07:45:14;;;;;;;15.55;9.98;;;5.00;99.90;;;;;;5082975;28;20036;-71
2022/04/04 07:47:40;;;;;;;19.13;9.75;;;5.00;99.90;;;;;;5082280;28;20126;-71
2022/04/04 07:50:08;;;;;;;15.77;9.18;;;5.00;99.90;;;;;;5082372;28;20509;-71
2022/04/04 07:52:34;;;;;;;21.60;10.57;;;5.10;99.90;;;;;;5074919;28;20040;-71
2022/04/04 07:54:59;;;;;;;19.05;10.75;;;5.10;99.90;;;;;;5091324;28;20143;-71
2022/04/04 07:57:25;;;;;;;16.60;10.35;;;5.10;99.90;;;;;;5074432;28;20040;-71
2022/04/04 07:59:51;;;;;;;18.70;10.68;;;5.10;99.90;;;;;;5078608;28;20036;-72
2022/04/04 08:02:19;;;;;;;14.43;8.45;;;5.20;99.90;;;;;;5079076;28;20518;-71
2022/04/04 08:04:45;;;;;;;18.27;9.55;;;5.20;99.90;;;;;;5091030;28;20068;-71
2022/04/04 08:07:12;;;;;;;19.77;9.88;;;5.20;99.90;;;;;;5077577;28;20064;-71
2022/04/04 08:09:37;;;;;;;17.23;8.57;;;5.20;99.90;;;;;;5081068;28;20127;-71
2022/04/04 08:12:06;;;;;;;13.70;8.40;;;5.30;99.90;;;;;;5074155;28;20612;-71
2022/04/04 08:14:36;;;;;;;13.48;8.82;;;5.30;99.90;;;;;;5079948;28;20094;-71
2022/04/04 08:17:02;;;;;;;17.58;8.98;;;5.30;99.90;;;;;;5076379;28;20049;-70
2022/04/04 08:19:28;;;;;;;14.55;7.07;;;5.30;99.90;;;;;;5077062;28;20048;-70
2022/04/04 08:21:54;;;;;;;18.95;9.60;;;5.40;99.90;;;;;;5088558;28;20050;-70
2022/04/04 08:24:20;;;;;;;16.88;8.73;;;5.40;99.90;;;;;;5104855;28;20184;-69
2022/04/04 08:26:45;;;;;;;16.85;8.55;;;5.40;99.90;;;;;;5078839;28;20037;-70
2022/04/04 08:29:12;;;;;;;14.30;8.13;;;5.50;99.90;;;;;;5072648;28;20497;-70
2022/04/04 08:31:38;;;;;;;14.10;8.80;;;5.50;99.90;;;;;;5072990;28;20359;-69
2022/04/04 08:34:04;;;;;;;22.50;8.98;;;5.50;99.90;;;;;;5082641;28;20040;-70
2022/04/04 08:36:29;;;;;;;10.38;6.80;;;5.50;99.90;;;;;;5087038;28;20067;-71
2022/04/04 08:38:55;;;;;;;14.07;6.15;;;5.80;99.90;;;;;;5086474;28;20048;-71
2022/04/04 08:41:21;;;;;;;10.88;6.30;;;5.60;99.90;;;;;;5085170;28;20040;-69
2022/04/04 08:43:51;;;;;;;12.23;5.63;;;5.60;99.90;;;;;;5078870;28;20040;-70
2022/04/04 08:46:17;;;;;;;12.93;6.25;;;5.60;99.90;;;;;;5088724;28;20477;-71
2022/04/04 08:48:44;;;;;;;8.50;6.07;;;5.70;99.90;;;;;;5092260;28;20451;-71
2022/04/04 08:51:10;;;;;;;10.57;5.45;;;5.70;99.90;;;;;;5083638;28;20040;-70
2022/04/04 08:53:38;;;;;;;9.85;4.63;;;5.70;99.90;;;;;;5077603;28;20044;-71
2022/04/04 08:56:05;;;;;;;6.72;4.90;;;5.70;99.90;;;;;;5080545;28;20052;-70
2022/04/04 08:58:32;;;;;;;14.30;5.13;;;5.70;99.90;;;;;;5089635;28;20048;-71
2022/04/04 09:00:58;;;;;;;7.40;4.90;;;5.70;99.90;;;;;;5065604;28;20047;-70
2022/04/04 09:03:31;;;;;;;7.13;4.72;;;5.80;99.90;;;;;;5082474;28;20042;-70
2022/04/04 09:06:00;;;;;;;12.45;5.85;;;5.80;99.90;;;;;;5080502;28;20040;-70
2022/04/04 09:08:28;;;;;;;9.02;5.07;;;5.80;99.90;;;;;;5082720;28;20085;-69
2022/04/04 09:10:56;;;;;;;7.70;4.75;;;5.80;99.90;;;;;;5083052;28;20072;-71
2022/04/04 09:13:25;;;;;;;7.00;4.65;;;5.80;99.90;;;;;;5074404;28;20044;-70
2022/04/04 09:16:04;;;;;;;6.82;4.70;;;5.90;99.90;;;;;;5081306;28;20486;-70
2022/04/04 09:18:39;;;;;;;8.75;4.05;;;5.90;99.90;;;;;;5083505;28;20080;-70
2022/04/04 09:21:07;;;;;;;8.75;4.43;;;5.90;99.90;;;;;;5081120;28;20052;-70
2022/04/04 09:23:42;;;;;;;10.02;4.70;;;5.90;99.90;;;;;;5081674;28;20059;-70
2022/04/04 09:26:28;;;;;;;8.73;4.28;;;5.90;99.90;;;;;;5070083;28;20044;-70
2022/04/04 09:28:55;;;;;;;9.68;4.25;;;6.00;99.90;;;;;;5080745;28;20036;-70
2022/04/04 09:31:21;;;;;;;11.48;4.60;;;5.90;99.90;;;;;;5084272;28;20044;-71
2022/04/04 09:33:47;;;;;;;9.65;4.55;;;6.00;99.90;;;;;;5085078;28;20121;-71
2022/04/04 09:36:12;;;;;;;10.43;5.00;;;6.00;99.90;;;;;;5086836;28;20044;-71
2022/04/04 09:38:43;;;;;;;8.27;4.35;;;6.00;99.90;;;;;;5084180;28;20055;-70
2022/04/04 09:41:14;;;;;;;10.32;4.63;;;6.10;99.90;;;;;;5086133;28;20028;-72
2022/04/04 09:43:57;;;;;;;11.07;4.50;;;6.10;99.90;;;;;;5086728;28;20043;-69
2022/04/04 09:46:23;;;;;;;10.18;3.83;;;6.10;99.90;;;;;;5087687;28;20047;-71
2022/04/04 09:49:06;;;;;;;8.90;3.65;;;6.10;99.90;;;;;;5087252;28;20048;-69
2022/04/04 09:51:50;;;;;;;10.77;4.72;;;6.20;99.90;;;;;;5067305;28;20048;-70
2022/04/04 09:54:41;;;;;;;7.95;4.07;;;6.20;99.90;;;;;;5077970;28;20047;-70
2022/04/04 09:57:11;;;;;;;8.80;4.40;;;6.20;99.90;;;;;;5078900;28;20046;-70
2022/04/04 09:59:41;;;;;;;6.45;3.70;;;6.30;99.90;;;;;;5083186;28;20138;-70
2022/04/04 10:02:07;;;;;;;12.68;4.38;;;6.30;99.90;;;;;;5088318;28;20536;-68
2022/04/04 10:04:34;;;;;;;7.28;3.95;;;6.30;99.90;;;;;;5083876;28;20495;-69
2022/04/04 10:07:06;;;;;;;8.45;4.32;;;6.30;99.90;;;;;;5085640;28;20079;-70
2022/04/04 10:09:33;;;;;;;8.70;3.95;;;6.30;99.90;;;;;;5088965;28;20048;-69
2022/04/04 10:11:59;;;;;;;7.07;3.70;;;6.30;99.90;;;;;;5087968;28;20141;-70
2022/04/04 10:14:25;;;;;;;13.55;4.13;;;6.40;99.90;;;;;;5082921;28;20048;-70
2022/04/04 10:16:57;;;;;;;7.65;3.88;;;6.40;99.90;;;;;;5085856;28;20549;-69
2022/04/04 10:19:27;;;;;;;9.80;3.88;;;6.40;99.90;;;;;;5086496;28;20079;-69
2022/04/04 10:21:52;;;;;;;7.65;3.83;;;6.50;99.90;;;;;;5085252;28;20055;-71
2022/04/04 10:24:19;;;;;;;8.45;3.67;;;6.40;99.90;;;;;;5080904;28;20267;-70
2022/04/04 10:26:48;;;;;;;7.32;4.00;;;6.50;99.90;;;;;;5085946;28;20055;-69
2022/04/04 10:29:19;;;;;;;7.38;3.25;;;6.60;99.90;;;;;;5087520;28;20482;-69
2022/04/04 10:31:53;;;;;;;9.15;4.03;;;6.60;99.90;;;;;;5082327;28;20059;-70
2022/04/04 10:34:24;;;;;;;6.88;3.60;;;7.90;99.90;;;;;;5086659;28;20043;-71
2022/04/04 10:37:09;;;;;;;9.10;3.30;;;6.60;99.90;;;;;;5068050;28;20044;-68
2022/04/04 10:39:47;;;;;;;6.57;4.00;;;6.60;99.90;;;;;;5084738;28;20067;-68
2022/04/04 10:42:31;;;;;;;7.13;3.78;;;6.60;99.90;;;;;;5086469;28;20046;-68
2022/04/04 10:44:59;;;;;;;10.15;3.40;;;6.70;99.90;;;;;;5089608;28;20036;-70
2022/04/04 10:47:27;;;;;;;8.75;3.60;;;6.70;99.90;;;;;;5083848;28;20047;-70
2022/04/04 10:49:56;;;;;;;6.68;2.88;;;6.70;99.90;;;;;;5086997;28;20118;-69
2022/04/04 10:52:48;;;;;;;8.43;3.30;;;6.70;99.90;;;;;;5084926;28;20036;-69
2022/04/04 10:55:52;;;;;;;6.13;3.45;;;6.70;99.90;;;;;;5081634;28;20209;-68
2022/04/04 10:58:20;;;;;;;8.63;3.20;;;6.70;99.90;;;;;;5057662;28;20048;-69
2022/04/04 11:01:14;;;;;;;7.22;3.25;;;6.80;99.90;;;;;;5089328;28;20044;-70
2022/04/04 11:03:41;;;;;;;5.72;2.13;;;6.80;99.90;;;;;;5072886;28;20044;-69
2022/04/04 11:12:08;;;;;;;9.85;2.60;;;6.80;99.90;;;;;;5080910;28;20052;-69
2022/04/04 11:14:41;;;;;;;5.43;2.50;;;6.90;99.90;;;;;;5094803;28;20059;-70
2022/04/04 11:17:23;;;;;;;3.80;2.00;;;6.90;99.90;;;;;;5094222;28;20047;-70
2022/04/04 11:23:13;;;;;;;3.85;2.17;;;6.90;99.90;;;;;;5092540;28;20048;-70
2022/04/04 11:25:52;;;;;;;4.90;1.83;;;7.00;99.90;;;;;;5060323;28;20394;-70
2022/04/04 11:31:19;;;;;;;7.35;1.92;;;7.10;99.90;;;;;;5061685;28;20588;-70
2022/04/04 11:33:47;;;;;;;4.25;1.75;;;7.10;99.90;;;;;;5084195;28;20512;-70
2022/04/04 11:36:24;;;;;;;4.90;2.00;;;7.10;99.90;;;;;;5074697;28;20158;-70
2022/04/04 11:38:51;;;;;;;4.45;1.83;;;7.20;99.90;;;;;;5078159;28;20036;-70
2022/04/04 11:41:19;;;;;;;4.40;2.03;;;7.20;99.90;;;;;;5092623;28;20052;-69
2022/04/04 11:43:50;;;;;;;;;;;7.20;99.90;;;;;;5094785;28;20437;-69
2022/04/04 11:46:19;;;;;;;4.65;1.90;;;7.20;99.90;;;;;;5094048;28;20369;-70
2022/04/04 11:48:51;;;;;;;4.90;1.85;;;7.20;99.90;;;;;;5092816;28;20130;-71
2022/04/04 11:51:17;;;;;;;2.88;1.67;;;7.30;99.90;;;;;;5091484;28;20049;-70
2022/04/04 11:53:43;;;;;;;2.97;1.38;;;7.30;99.90;;;;;;5077510;28;20071;-70
2022/04/04 11:56:20;;;;;;;3.90;1.88;;;7.30;99.90;;;;;;5076073;28;20041;-69
2022/04/04 11:58:54;;;;;;;4.15;1.80;;;7.40;99.90;;;;;;5083165;28;20494;-71
2022/04/04 12:01:20;;;;;;;4.68;1.75;;;7.40;99.90;;;;;;5093762;28;20040;-71
2022/04/04 12:03:50;;;;;;;2.83;1.70;;;7.40;99.90;;;;;;5075589;28;20087;-70
2022/04/04 12:06:16;;;;;;;4.28;1.70;;;7.40;99.90;;;;;;5085765;28;20036;-69
2022/04/04 12:08:45;;;;;;;3.53;1.60;;;7.40;99.90;;;;;;5079504;28;20040;-69
2022/04/04 12:11:11;;;;;;;4.03;1.85;;;7.40;99.90;;;;;;5076223;28;20053;-70
2022/04/04 12:13:53;;;;;;;4.32;1.70;;;7.40;99.90;;;;;;5071738;28;20041;-70
2022/04/04 12:16:19;;;;;;;2.65;1.60;;;7.40;99.90;;;;;;5079115;28;20033;-70
2022/04/04 12:19:04;;;;;;;3.83;1.83;;;7.40;99.90;;;;;;5091876;28;20482;-70
2022/04/04 12:21:30;;;;;;;5.63;2.17;;;7.40;99.90;;;;;;5085710;28;20062;-69
2022/04/04 12:26:42;;;;;;;3.20;1.65;;;7.50;99.90;;;;;;5061311;28;20546;-69
2022/04/04 12:29:13;;;;;;;3.42;2.10;;;7.60;99.90;;;;;;5091926;28;20122;-70
2022/04/04 12:31:55;;;;;;;3.75;1.65;;;7.60;99.90;;;;;;5077041;28;20040;-70
2022/04/04 12:34:22;;;;;;;4.97;2.22;;;7.60;99.90;;;;;;5088928;28;20078;-68
2022/04/04 12:36:48;;;;;;;6.65;2.30;;;7.70;99.90;;;;;;5074577;28;20056;-69
2022/04/04 12:39:18;;;;;;;3.83;2.17;;;7.70;99.90;;;;;;5105488;28;21119;-70
2022/04/04 12:41:46;;;;;;;4.00;2.00;;;7.80;99.90;;;;;;5086858;28;20386;-69
2022/04/04 12:44:17;;;;;;;4.32;2.25;;;7.80;99.90;;;;;;5091136;28;20051;-69
2022/04/04 12:46:43;;;;;;;2.97;1.83;;;7.80;99.90;;;;;;5086918;28;20076;-68
2022/04/04 12:49:20;;;;;;;4.10;2.40;;;7.90;99.90;;;;;;5084346;28;20457;-70
2022/04/04 12:51:56;;;;;;;4.47;2.33;;;7.90;99.90;;;;;;5088293;28;20044;-69
2022/04/04 12:54:27;;;;;;;3.78;2.08;;;8.60;99.90;;;;;;5088293;28;20118;-69
2022/04/04 12:56:54;;;;;;;2.83;2.00;;;8.00;99.90;;;;;;5072096;28;20036;-71
2022/04/04 12:59:20;;;;;;;6.38;2.17;;;8.00;99.90;;;;;;5072691;28;20033;-70
2022/04/04 13:02:18;;;;;;;3.13;2.30;;;8.00;99.90;;;;;;5089946;28;20038;-70
2022/04/04 13:04:43;;;;;;;3.60;2.38;;;8.10;99.90;;;;;;5087903;28;20405;-71
2022/04/04 13:07:16;;;;;;;4.50;2.50;;;9.00;99.90;;;;;;5089338;28;20040;-71
2022/04/04 13:09:52;;;;;;;4.22;2.70;;;8.20;99.90;;;;;;5080656;28;20036;-69
2022/04/04 13:12:29;;;;;;;7.07;2.88;;;8.20;99.90;;;;;;5087309;28;20055;-69